Khon Kaen, Thailand

7:07 PM ICT on August 29, 2014 (GMT +0700)
Khon Kaen | Change Station
CLOSE
Current Station
Airport
Location: Khon Kaen,
Elevation: 633 ft
Nearby Weather Stations

Elev 633 ft 16.46 °N, 102.79 °E | Updated 1 hour ago

Overcast
Overcast
81 °F
Feels Like 87 °F
N
0
Wind Variable Wind from North

Today
High -- | Low -- °F
--% Chance of Precip.
Yesterday
High -- | Low -- °F
Precip. -- in
5:55 AM 6:24 PM
Waxing Crescent, 14% visible
Pressure 29.74 in
Visibility 6.2 miles
Clouds Few 2500 ft
Scattered Clouds 10000 ft
Overcast 30000 ft
Heat Index 87 °F
Dew Point 77 °F
Humidity 89%
Rainfall 0.00 in
Snow Depth Not available.
UV 0 out of 12
Pollen Not available.
Air Quality Not available.
Flu Activity Not available.
METAR VTUK 291100Z 00000KT 9999 FEW025CB SCT100 OVC300 27/25 Q1007 A2974 CB SE INFO P RWY03

More Conditions Fewer Conditions

Pressure 29.74 in
Visibility 6.2 miles
Clouds Few 2500 ft
Scattered Clouds 10000 ft
Overcast 30000 ft
Heat Index 87 °F
Dew Point 77 °F
Humidity 89%
Rainfall 0.00 in
Snow Depth Not available.
UV 0 out of 12
Pollen Not available.
Air Quality Not available.
Flu Activity Not available.
METAR VTUK 291100Z 00000KT 9999 FEW025CB SCT100 OVC300 27/25 Q1007 A2974 CB SE INFO P RWY03

More Conditions Fewer Conditions

10-Day Weather Forecast

Almanac

Astronomy

Aug. 29, 2014 Rise Set
Actual Time 5:55 AM ICT 6:24 PM ICT
Civil Twilight 5:33 AM ICT 6:46 PM ICT
Nautical Twilight 5:07 AM ICT 7:11 PM ICT
Astronomical Twilight 4:41 AM ICT 7:37 PM ICT
Moon 8:38 AM ICT 8:42 PM ICT
Length of Visible Light 13h 13m
Length of Day
12h 29m
Tomorrow will be 0m 52s shorter.
Waxing Crescent, 14% of the Moon is Illuminated
Today
Waxing Crescent
Sep 2
First Quarter
Sep 8
Full
Sep 15
Last Quarter
Sep 24
New

Yesterday's Extremes

Country Highs Country Lows

Community

WunderPhotos

Upload Photos

1,748,214 photos uploaded!

Nearby

Snow Depth

Not available.

Earthquake Activity

City Distance Mag. Time & Date
No recent earthquake activity has been reported nearby.
Minimum magnitude displayed is 2.5.

Coastal Water Temperatures

Place Temperature
No Stations Reporting

Nearby Weather Stations